createdAt,value
2022-08-29T00:02:38.360Z,101073.88
2022-08-29T00:05:42.916Z,101079.03
2022-08-29T00:08:54.624Z,101078.66
2022-08-29T00:11:59.561Z,101077.66
2022-08-29T00:15:07.216Z,101083.66
2022-08-29T00:18:12.396Z,101077.16
2022-08-29T00:21:17.038Z,101081.34
2022-08-29T00:24:22.080Z,101089.66
2022-08-29T00:27:26.642Z,101078.69
2022-08-29T00:30:31.889Z,101085.00
2022-08-29T00:33:39.237Z,101075.03
2022-08-29T00:36:49.166Z,101081.50
2022-08-29T00:39:54.030Z,101062.81
2022-08-29T00:42:59.679Z,101076.91
2022-08-29T00:46:15.525Z,101081.41
2022-08-29T00:49:35.271Z,101082.22
2022-08-29T00:52:43.699Z,101075.28
2022-08-29T00:55:50.522Z,101077.47
2022-08-29T00:59:01.075Z,101086.59
2022-08-29T01:02:08.075Z,101083.00
2022-08-29T01:05:16.270Z,101078.47
2022-08-29T01:08:22.741Z,101070.50
2022-08-29T01:11:49.517Z,101071.78
2022-08-29T01:15:03.138Z,101087.38
2022-08-29T01:18:10.105Z,101091.28
2022-08-29T01:21:32.848Z,101094.16
2022-08-29T01:24:41.353Z,101091.41
2022-08-29T01:27:50.326Z,101053.88
2022-08-29T01:31:01.254Z,101077.00
2022-08-29T01:34:06.305Z,101068.88
2022-08-29T01:37:15.184Z,101076.81
2022-08-29T01:40:20.315Z,101082.16
2022-08-29T01:43:25.000Z,101085.50
2022-08-29T01:46:33.377Z,101047.13
2022-08-29T01:49:41.011Z,101086.91
2022-08-29T01:52:46.137Z,101088.41
2022-08-29T01:55:51.144Z,101078.53
2022-08-29T01:58:57.283Z,101100.56
2022-08-29T02:02:20.842Z,101093.44
2022-08-29T02:05:25.679Z,101082.28
2022-08-29T02:08:31.060Z,101109.34
2022-08-29T02:11:37.350Z,101090.59
2022-08-29T02:14:42.799Z,101090.31
2022-08-29T02:17:48.470Z,101083.97
2022-08-29T02:20:53.327Z,101069.09
2022-08-29T02:24:15.989Z,101078.97
2022-08-29T02:27:25.919Z,101069.06
2022-08-29T02:30:30.767Z,101076.63
2022-08-29T02:33:36.108Z,101078.38
2022-08-29T02:36:42.983Z,101085.53
2022-08-29T02:39:49.641Z,101092.22
2022-08-29T02:42:54.755Z,101077.50
2022-08-29T02:45:59.262Z,101081.50
2022-08-29T02:49:04.048Z,101064.09
2022-08-29T02:52:09.400Z,101075.09
2022-08-29T02:55:17.332Z,101093.88
2022-08-29T02:58:25.602Z,101076.84
2022-08-29T03:01:32.014Z,101079.34
2022-08-29T03:04:36.461Z,101073.38
2022-08-29T03:07:41.557Z,101075.00
2022-08-29T03:10:47.105Z,101083.66
2022-08-29T03:13:51.822Z,101078.22
2022-08-29T03:17:02.724Z,101065.38
2022-08-29T03:20:09.524Z,101066.00
2022-08-29T03:23:14.372Z,101056.53
2022-08-29T03:26:20.193Z,101060.13
2022-08-29T03:29:25.859Z,101061.56
2022-08-29T03:32:30.628Z,101070.66
2022-08-29T03:35:35.407Z,101068.13
2022-08-29T03:38:40.241Z,101070.56
2022-08-29T03:41:44.963Z,101070.59
2022-08-29T03:44:49.541Z,101065.22
2022-08-29T03:47:54.735Z,101075.78
2022-08-29T03:51:00.117Z,101076.44
2022-08-29T03:54:05.500Z,101074.25
2022-08-29T03:57:11.228Z,101068.91
2022-08-29T04:00:18.567Z,101068.13
2022-08-29T04:03:26.508Z,101064.91
2022-08-29T04:06:36.190Z,101069.69
2022-08-29T04:09:44.652Z,101065.31
2022-08-29T04:12:54.255Z,101061.00
2022-08-29T04:15:59.600Z,101057.16
2022-08-29T04:19:04.190Z,101061.44
2022-08-29T04:22:14.655Z,101050.94
2022-08-29T04:25:19.924Z,101041.81
2022-08-29T04:28:24.660Z,101040.50
2022-08-29T04:31:29.633Z,101033.94
2022-08-29T04:34:35.086Z,101021.59
2022-08-29T04:37:41.065Z,101003.09
2022-08-29T04:40:45.930Z,101013.81
2022-08-29T04:43:50.851Z,101003.81
2022-08-29T04:46:55.756Z,101002.16
2022-08-29T04:50:00.673Z,100995.81
2022-08-29T04:53:06.973Z,100992.03
2022-08-29T04:56:14.291Z,100994.31
2022-08-29T04:59:21.165Z,100990.06
2022-08-29T05:02:27.565Z,100972.41
2022-08-29T05:05:32.159Z,100970.47
2022-08-29T05:08:38.680Z,100965.88
2022-08-29T05:11:44.362Z,100965.97
2022-08-29T05:14:49.013Z,100950.78
2022-08-29T05:17:54.981Z,100949.44
2022-08-29T05:20:59.710Z,100943.88
2022-08-29T05:24:09.199Z,100953.91
2022-08-29T05:27:17.192Z,100945.41
2022-08-29T05:30:34.747Z,100932.31
2022-08-29T05:33:40.083Z,100933.31
2022-08-29T05:36:44.975Z,100939.94
2022-08-29T05:39:51.105Z,100942.72
2022-08-29T05:42:56.427Z,100938.56
2022-08-29T05:46:09.142Z,100927.88
2022-08-29T05:49:13.837Z,100924.47
2022-08-29T05:52:20.592Z,100928.63
2022-08-29T05:55:27.505Z,100935.13
2022-08-29T05:58:32.097Z,100922.25
2022-08-29T06:01:36.863Z,100928.34
2022-08-29T06:04:41.912Z,100908.31
2022-08-29T06:07:46.706Z,100926.38
2022-08-29T06:10:51.667Z,100919.91
2022-08-29T06:13:56.308Z,100921.13
2022-08-29T06:17:01.675Z,100916.22
2022-08-29T06:20:10.351Z,100914.94
2022-08-29T06:23:15.266Z,100914.59
2022-08-29T06:26:20.642Z,100918.72
2022-08-29T06:29:26.586Z,100928.03
2022-08-29T06:32:31.261Z,100900.75
2022-08-29T06:35:35.799Z,100934.31
2022-08-29T06:38:40.725Z,100927.28
2022-08-29T06:41:45.572Z,100940.81
2022-08-29T06:44:51.425Z,100927.50
2022-08-29T06:47:56.085Z,100930.75
2022-08-29T06:51:05.127Z,100931.81
2022-08-29T06:54:12.585Z,100928.91
2022-08-29T06:57:18.651Z,100914.91
2022-08-29T07:00:24.751Z,100914.25
2022-08-29T07:03:29.542Z,100908.53
2022-08-29T07:06:34.278Z,100912.31
2022-08-29T07:09:38.993Z,100907.44
2022-08-29T07:12:43.394Z,100910.34
2022-08-29T07:15:47.891Z,100925.84
2022-08-29T07:18:53.052Z,100910.16
2022-08-29T07:22:00.591Z,100915.81
2022-08-29T07:25:05.597Z,100917.09
2022-08-29T07:28:10.450Z,100908.66
2022-08-29T07:31:15.616Z,100896.41
2022-08-29T07:34:21.088Z,100917.59
2022-08-29T07:37:26.147Z,100918.28
2022-08-29T07:40:31.986Z,100907.88
2022-08-29T07:43:38.067Z,100921.84
2022-08-29T07:46:43.542Z,100918.91
2022-08-29T07:49:48.111Z,100907.53
2022-08-29T07:52:53.352Z,100913.50
2022-08-29T07:55:57.668Z,100914.47
2022-08-29T07:59:02.330Z,100910.91
2022-08-29T08:02:06.898Z,100911.75
2022-08-29T08:05:12.176Z,100905.50
2022-08-29T08:08:16.468Z,100915.75
2022-08-29T08:11:22.936Z,100919.00
2022-08-29T08:14:34.899Z,100908.59
2022-08-29T08:17:43.905Z,100912.41
2022-08-29T08:20:52.182Z,100921.72
2022-08-29T08:23:56.674Z,100921.59
2022-08-29T08:27:01.139Z,100911.63
2022-08-29T08:30:06.797Z,100911.78
2022-08-29T08:33:11.764Z,100914.94
2022-08-29T08:36:22.675Z,100906.16
2022-08-29T08:39:28.081Z,100913.22
2022-08-29T08:42:46.948Z,100917.16
2022-08-29T08:45:51.757Z,100921.16
2022-08-29T08:48:59.329Z,100918.34
2022-08-29T08:52:11.478Z,100930.59
2022-08-29T08:55:30.683Z,100929.06
2022-08-29T08:58:38.137Z,100933.00
2022-08-29T09:02:06.461Z,100915.19
2022-08-29T09:05:47.301Z,100922.19
2022-08-29T09:09:01.158Z,100927.22
2022-08-29T09:12:17.798Z,100934.25
2022-08-29T09:15:26.459Z,100937.31
2022-08-29T09:18:40.821Z,100950.13
2022-08-29T09:21:56.172Z,100955.03
2022-08-29T09:25:09.271Z,100954.25
2022-08-29T09:28:14.359Z,100951.81
2022-08-29T09:31:33.473Z,100941.22
2022-08-29T09:35:06.878Z,100929.84
2022-08-29T09:38:19.848Z,100932.66
2022-08-29T09:41:30.948Z,100910.34
2022-08-29T09:44:36.858Z,100925.00
2022-08-29T09:47:41.677Z,100932.50
2022-08-29T09:50:46.829Z,100931.66
2022-08-29T09:53:54.250Z,100947.34
2022-08-29T09:57:04.792Z,100954.06
2022-08-29T10:00:14.609Z,100930.69
2022-08-29T10:03:25.494Z,100962.16
2022-08-29T10:06:45.149Z,100953.28
2022-08-29T10:10:28.057Z,100969.16
2022-08-29T10:13:51.506Z,100978.56
2022-08-29T10:17:23.262Z,100984.66
2022-08-29T10:20:58.846Z,100978.47
2022-08-29T10:24:26.221Z,100984.19
2022-08-29T10:27:45.936Z,100980.53
2022-08-29T10:31:01.518Z,100987.84
2022-08-29T10:34:14.889Z,100988.75
2022-08-29T10:37:50.028Z,100995.31
2022-08-29T10:41:02.919Z,100991.69
2022-08-29T10:44:34.962Z,101006.81
2022-08-29T10:47:49.488Z,101003.84
2022-08-29T10:51:15.280Z,101008.72
2022-08-29T10:54:46.977Z,101003.66
2022-08-29T10:57:58.768Z,101011.47
2022-08-29T11:01:36.380Z,101002.59
2022-08-29T11:04:51.932Z,101006.69
2022-08-29T11:08:02.025Z,101016.34
2022-08-29T11:11:06.830Z,101014.16
2022-08-29T11:14:23.275Z,101031.75
2022-08-29T11:17:32.741Z,101013.72
2022-08-29T11:20:46.755Z,101043.47
2022-08-29T11:23:51.879Z,101051.09
2022-08-29T11:27:19.376Z,101039.50
2022-08-29T11:30:56.638Z,101045.50
2022-08-29T11:34:45.403Z,101043.53
2022-08-29T11:38:08.084Z,101036.41
2022-08-29T11:41:29.390Z,101033.94
2022-08-29T11:45:00.166Z,101021.69
2022-08-29T11:48:33.218Z,101017.13
2022-08-29T11:51:43.415Z,101004.06
2022-08-29T11:54:52.309Z,101008.50
2022-08-29T11:58:04.181Z,101027.19
2022-08-29T12:01:12.514Z,101022.66
2022-08-29T12:04:54.295Z,101015.38
2022-08-29T12:08:02.928Z,101019.75
2022-08-29T12:11:15.004Z,101008.09
2022-08-29T12:14:38.067Z,101011.44
2022-08-29T12:18:01.361Z,101017.13
2022-08-29T12:21:33.461Z,101019.81
2022-08-29T12:24:55.196Z,100988.91
2022-08-29T12:28:34.956Z,101011.28
2022-08-29T12:32:23.397Z,100994.09
2022-08-29T12:36:01.761Z,101005.09
2022-08-29T12:40:00.850Z,101007.31
2022-08-29T12:43:26.991Z,101001.78
2022-08-29T12:46:36.364Z,100992.16
2022-08-29T12:49:53.922Z,100985.25
2022-08-29T12:53:06.191Z,101001.47
2022-08-29T12:56:24.437Z,100980.16
2022-08-29T12:59:30.056Z,100989.41
2022-08-29T13:02:38.471Z,100997.63
2022-08-29T13:05:43.363Z,100979.91
2022-08-29T13:08:50.432Z,100993.19
2022-08-29T13:12:40.025Z,100995.47
2022-08-29T13:15:45.012Z,100987.41
2022-08-29T13:19:07.696Z,100973.19
2022-08-29T13:22:15.943Z,100989.72
2022-08-29T13:25:20.751Z,100999.53
2022-08-29T13:28:46.007Z,100981.59
2022-08-29T13:32:27.661Z,100981.56
2022-08-29T13:35:36.722Z,100982.25
2022-08-29T13:38:41.524Z,100982.50
2022-08-29T13:42:03.328Z,100988.88
2022-08-29T13:45:14.316Z,100986.69
2022-08-29T13:48:21.136Z,100990.78
2022-08-29T13:51:25.894Z,100988.72
2022-08-29T13:54:35.870Z,100990.72
2022-08-29T13:57:42.457Z,101008.31
2022-08-29T14:00:47.712Z,100997.88
2022-08-29T14:03:53.477Z,101004.00
2022-08-29T14:06:58.319Z,101002.69
2022-08-29T14:10:03.356Z,101010.75
2022-08-29T14:13:08.342Z,101000.75
2022-08-29T14:16:13.585Z,101003.13
2022-08-29T14:19:18.228Z,101015.25
2022-08-29T14:22:22.912Z,101014.78
2022-08-29T14:25:27.938Z,101013.63
2022-08-29T14:28:34.783Z,100996.78
2022-08-29T14:31:41.637Z,101025.97
2022-08-29T14:34:52.472Z,101025.63
2022-08-29T14:37:58.135Z,101024.00
2022-08-29T14:41:02.808Z,101022.13
2022-08-29T14:44:07.506Z,101020.53
2022-08-29T14:47:12.375Z,101017.06
2022-08-29T14:50:17.491Z,101019.84
2022-08-29T14:53:22.383Z,100998.97
2022-08-29T14:56:47.526Z,101005.63
2022-08-29T14:59:52.528Z,101020.97
2022-08-29T15:02:58.036Z,101018.94
2022-08-29T15:06:03.636Z,101015.75
2022-08-29T15:09:08.514Z,100983.47
2022-08-29T15:12:15.630Z,101018.13
2022-08-29T15:15:20.597Z,101015.38
2022-08-29T15:19:05.468Z,101005.09
2022-08-29T15:21:50.304Z,101012.75
2022-08-29T15:24:55.365Z,101009.34
2022-08-29T15:27:59.835Z,101011.94
2022-08-29T15:31:04.581Z,101014.63
2022-08-29T15:34:09.311Z,100980.28
2022-08-29T15:37:14.540Z,100996.16
2022-08-29T15:40:20.336Z,100991.84
2022-08-29T15:43:24.856Z,100968.47
2022-08-29T15:46:30.032Z,100970.63
2022-08-29T15:49:34.980Z,100971.06
2022-08-29T15:52:39.676Z,100971.38
2022-08-29T15:55:44.599Z,100998.19
2022-08-29T15:58:50.335Z,100988.25
2022-08-29T16:01:55.456Z,100973.75
2022-08-29T16:05:02.823Z,100992.84
2022-08-29T16:08:07.954Z,100985.25
2022-08-29T16:11:14.555Z,100976.25
2022-08-29T16:17:45.240Z,100971.03
2022-08-29T16:20:50.145Z,100975.16
2022-08-29T16:23:57.635Z,100973.03
2022-08-29T16:27:02.436Z,100988.00
2022-08-29T16:30:07.697Z,100965.72
2022-08-29T16:33:12.188Z,100978.69
2022-08-29T16:36:17.541Z,100976.44
2022-08-29T16:39:22.101Z,100975.84
2022-08-29T16:42:30.414Z,100967.84
2022-08-29T16:45:36.048Z,100960.69
2022-08-29T16:48:40.659Z,100964.16
2022-08-29T16:51:45.867Z,100986.09
2022-08-29T16:54:53.640Z,100953.28
2022-08-29T16:58:18.402Z,100971.59
2022-08-29T17:01:23.414Z,100957.38
2022-08-29T17:04:29.162Z,100966.50
2022-08-29T17:07:33.586Z,100970.00
2022-08-29T17:10:38.237Z,100966.09
2022-08-29T17:13:43.352Z,100965.34
2022-08-29T17:16:50.318Z,100956.63
2022-08-29T17:19:54.944Z,100968.97
2022-08-29T17:22:59.987Z,100962.22
2022-08-29T17:26:08.521Z,100972.81
2022-08-29T17:29:14.562Z,100969.84
2022-08-29T17:32:19.295Z,100967.31
2022-08-29T17:35:24.127Z,100946.63
2022-08-29T17:38:29.128Z,100936.41
2022-08-29T17:41:36.448Z,100956.47
2022-08-29T17:44:41.402Z,100949.91
2022-08-29T17:47:46.394Z,100957.88
2022-08-29T17:50:51.555Z,100951.25
2022-08-29T17:53:56.244Z,100947.69
2022-08-29T17:57:01.584Z,100951.03
2022-08-29T18:00:07.393Z,100957.09
2022-08-29T18:03:14.534Z,100946.19
2022-08-29T18:06:19.677Z,100943.59
2022-08-29T18:09:25.526Z,100953.19
2022-08-29T18:12:30.138Z,100958.63
2022-08-29T18:15:35.407Z,100942.88
2022-08-29T18:18:42.181Z,100947.50
2022-08-29T18:21:47.374Z,100952.56
2022-08-29T18:24:54.039Z,100931.50
2022-08-29T18:27:58.764Z,100941.06
2022-08-29T18:31:04.334Z,100942.13
2022-08-29T18:34:10.336Z,100937.19
2022-08-29T18:37:16.008Z,100928.34
2022-08-29T18:40:20.815Z,100927.41
2022-08-29T18:43:25.199Z,100927.44
2022-08-29T18:46:30.902Z,100935.44
2022-08-29T18:49:54.026Z,100931.94
2022-08-29T18:52:58.613Z,100913.56
2022-08-29T18:56:03.476Z,100931.03
2022-08-29T18:59:08.003Z,100916.25
2022-08-29T19:02:13.821Z,100920.72
2022-08-29T19:05:19.768Z,100923.50
2022-08-29T19:08:28.626Z,100914.75
2022-08-29T19:11:33.252Z,100902.69
2022-08-29T19:14:46.079Z,100906.31
2022-08-29T19:17:51.349Z,100906.38
2022-08-29T19:21:08.637Z,100901.41
2022-08-29T19:24:13.407Z,100905.63
2022-08-29T19:27:41.659Z,100906.56
2022-08-29T19:30:43.747Z,100909.06
2022-08-29T19:33:48.660Z,100896.84
2022-08-29T19:36:54.585Z,100900.47
2022-08-29T19:39:59.307Z,100894.00
2022-08-29T19:43:14.226Z,100890.38
2022-08-29T19:46:22.384Z,100879.16
2022-08-29T19:49:27.015Z,100902.81
2022-08-29T19:52:32.506Z,100884.53
2022-08-29T19:55:38.513Z,100890.66
2022-08-29T19:58:43.489Z,100887.59
2022-08-29T20:01:48.279Z,100871.97
2022-08-29T20:04:53.172Z,100886.03
2022-08-29T20:07:58.627Z,100876.56
2022-08-29T20:11:03.062Z,100893.13
2022-08-29T20:14:11.610Z,100877.16
2022-08-29T20:17:20.521Z,100908.31
2022-08-29T20:20:31.269Z,100907.47
2022-08-29T20:23:36.046Z,100866.56
2022-08-29T20:26:41.652Z,100911.16
2022-08-29T20:29:46.431Z,100916.53
2022-08-29T20:32:52.937Z,100881.50
2022-08-29T20:36:15.842Z,100904.16
2022-08-29T20:39:21.906Z,100911.25
2022-08-29T20:42:28.089Z,100906.69
2022-08-29T20:45:33.039Z,100902.59
2022-08-29T20:48:38.864Z,100903.22
2022-08-29T20:51:46.944Z,100895.09
2022-08-29T20:54:52.407Z,100908.03
2022-08-29T20:57:56.871Z,100915.00
2022-08-29T21:01:02.542Z,100916.09
2022-08-29T21:04:27.101Z,100912.47
2022-08-29T21:07:32.136Z,100899.06
2022-08-29T21:10:36.799Z,100904.31
2022-08-29T21:13:42.427Z,100909.28
2022-08-29T21:16:47.228Z,100918.81
2022-08-29T21:19:52.157Z,100921.47
2022-08-29T21:22:59.395Z,100923.28
2022-08-29T21:26:04.277Z,100924.72
2022-08-29T21:29:10.203Z,100927.78
2022-08-29T21:32:15.004Z,100926.00
2022-08-29T21:35:19.944Z,100920.44
2022-08-29T21:38:24.456Z,100928.47
2022-08-29T21:41:31.749Z,100930.16
2022-08-29T21:44:39.493Z,100926.53
2022-08-29T21:47:44.261Z,100939.75
2022-08-29T21:50:56.388Z,100931.56
2022-08-29T21:54:01.758Z,100919.00
2022-08-29T21:57:06.687Z,100915.75
2022-08-29T22:00:12.260Z,100921.63
2022-08-29T22:03:17.131Z,100921.69
2022-08-29T22:06:22.119Z,100928.53
2022-08-29T22:09:27.264Z,100912.38
2022-08-29T22:12:32.272Z,100908.81
2022-08-29T22:15:55.278Z,100896.34
2022-08-29T22:19:19.004Z,100901.66
2022-08-29T22:22:23.805Z,100890.28
2022-08-29T22:25:28.968Z,100895.31
2022-08-29T22:28:33.254Z,100901.22
2022-08-29T22:31:38.169Z,100911.81
2022-08-29T22:34:42.902Z,100917.13
2022-08-29T22:37:47.561Z,100904.72
2022-08-29T22:40:52.793Z,100908.84
2022-08-29T22:44:37.630Z,100914.22
2022-08-29T22:47:23.592Z,100910.38
2022-08-29T22:50:28.100Z,100908.50
2022-08-29T22:53:32.653Z,100904.50
2022-08-29T22:56:40.290Z,100915.56
2022-08-29T22:59:45.806Z,100904.97
2022-08-29T23:02:51.084Z,100898.66
2022-08-29T23:05:55.785Z,100916.06
2022-08-29T23:09:00.651Z,100915.72
2022-08-29T23:12:07.151Z,100882.28
2022-08-29T23:15:17.551Z,100902.00
2022-08-29T23:18:21.937Z,100920.78
2022-08-29T23:21:26.586Z,100906.34
2022-08-29T23:24:33.316Z,100920.03
2022-08-29T23:27:38.231Z,100920.00
2022-08-29T23:30:45.153Z,100903.78
2022-08-29T23:33:50.803Z,100918.63
2022-08-29T23:36:55.416Z,100913.03
2022-08-29T23:40:00.528Z,100920.00
2022-08-29T23:43:06.851Z,100915.88
2022-08-29T23:46:12.533Z,100911.66
2022-08-29T23:49:17.324Z,100904.59
2022-08-29T23:52:22.019Z,100900.97
2022-08-29T23:55:26.747Z,100907.94
2022-08-29T23:58:31.160Z,100900.56
